Time;durP1;ratioP1;P1;durP2;ratioP2;P2;SDS_P1;SDS_P2;PMS_P1;PMS_P2;Temp;Humidity;BMP_temperature;BMP_pressure;BME280_temperature;BME280_humidity;BME280_pressure;Samples;Min_cycle;Max_cycle;Signal;HPM_P1;HPM_P2
2022/09/11 00:01:37;;;;;;;31.70;20.23;;;;;;;;;;5034211;28;20115;-74
2022/09/11 00:04:03;;;;;;;28.63;17.88;;;;;;;;;;5053711;28;20516;-73
2022/09/11 00:06:30;;;;;;;37.20;20.77;;;;;;;;;;5052283;28;20135;-73
2022/09/11 00:08:59;;;;;;;28.40;16.45;;;;;;;;;;5039419;28;20108;-73
2022/09/11 00:11:26;;;;;;;32.05;15.60;;;;;;;;;;5052474;28;20592;-73
2022/09/11 00:13:53;;;;;;;23.38;15.88;;;;;;;;;;5053504;28;20044;-73
2022/09/11 00:16:30;;;;;;;26.73;16.88;;;;;;;;;;5051133;28;20044;-68
2022/09/11 00:18:57;;;;;;;33.40;18.98;;;;;;;;;;5067259;28;20083;-68
2022/09/11 00:21:24;;;;;;;36.42;21.08;;;;;;;;;;5051481;28;20045;-68
2022/09/11 00:23:50;;;;;;;35.08;22.17;;;;;;;;;;5067181;28;20055;-68
2022/09/11 00:26:17;;;;;;;35.00;21.23;;;;;;;;;;5050114;28;20052;-67
2022/09/11 00:28:44;;;;;;;36.63;19.40;;;;;;;;;;5040199;28;20080;-68
2022/09/11 00:31:11;;;;;;;28.13;18.05;;;;;;;;;;5067480;28;20370;-68
2022/09/11 00:33:38;;;;;;;28.23;16.67;;;;;;;;;;5052418;28;20045;-73
2022/09/11 00:36:06;;;;;;;33.90;19.33;;;;;;;;;;5051605;28;20367;-73
2022/09/11 00:38:34;;;;;;;32.90;19.88;;;;;;;;;;5052499;28;20113;-73
2022/09/11 00:41:01;;;;;;;26.88;17.52;;;;;;;;;;5052635;28;20045;-73
2022/09/11 00:43:28;;;;;;;25.13;17.00;;;;;;;;;;5051435;28;20508;-73
2022/09/11 00:45:59;;;;;;;25.27;16.40;;;;;;;;;;5054782;28;20041;-73
2022/09/11 00:48:28;;;;;;;29.08;18.35;;;;;;;;;;5054986;28;20041;-73
2022/09/11 00:50:56;;;;;;;28.40;18.10;;;;;;;;;;5055655;28;20120;-73
2022/09/11 00:53:24;;;;;;;32.92;20.00;;;;;;;;;;5056460;28;20490;-73
2022/09/11 00:55:53;;;;;;;32.40;19.17;;;;;;;;;;5056506;28;20079;-73
2022/09/11 00:58:21;;;;;;;32.55;20.10;;;;;;;;;;5052593;28;20044;-73
2022/09/11 01:00:47;;;;;;;31.48;19.17;;;;;;;;;;5045327;28;20045;-73
2022/09/11 01:03:13;;;;;;;35.17;19.55;;;;;;;;;;5054812;28;20048;-73
2022/09/11 01:05:40;;;;;;;28.40;16.85;;;;;;;;;;5054875;28;20041;-73
2022/09/11 01:08:07;;;;;;;31.80;18.52;;;;;;;;;;5054876;28;20048;-73
2022/09/11 01:10:40;;;;;;;31.38;19.08;;;;;;;;;;5053709;28;20041;-68
2022/09/11 01:13:09;;;;;;;30.00;18.65;;;;;;;;;;5055209;28;20041;-68
2022/09/11 01:15:39;;;;;;;29.70;16.58;;;;;;;;;;5054767;28;20037;-67
2022/09/11 01:18:09;;;;;;;30.85;17.52;;;;;;;;;;5054898;28;20041;-67
2022/09/11 01:20:54;;;;;;;29.73;18.20;;;;;;;;;;5055018;28;20512;-67
2022/09/11 01:23:39;;;;;;;546.80;26.17;;;;;;;;;;5070317;28;20045;-68
2022/09/11 01:26:31;;;;;;;87.57;16.77;;;;;;;;;;5055027;28;20040;-67
2022/09/11 01:29:02;;;;;;;21.77;13.82;;;;;;;;;;5042052;28;20145;-68
2022/09/11 01:31:32;;;;;;;26.42;17.20;;;;;;;;;;5054726;28;20044;-68
2022/09/11 01:33:59;;;;;;;22.02;13.85;;;;;;;;;;5070366;28;20508;-68
2022/09/11 01:36:33;;;;;;;34.97;18.67;;;;;;;;;;5054136;28;20029;-68
2022/09/11 01:39:01;;;;;;;26.83;16.27;;;;;;;;;;5069487;28;20521;-68
2022/09/11 01:41:47;;;;;;;24.52;15.70;;;;;;;;;;5039898;28;20072;-68
2022/09/11 01:44:33;;;;;;;27.20;15.70;;;;;;;;;;5069447;28;20097;-68
2022/09/11 01:46:59;;;;;;;;;;;;;;;;;;5053599;28;20048;-68
2022/09/11 01:49:31;;;;;;;25.10;15.65;;;;;;;;;;5074296;28;19970;-68
2022/09/11 01:52:00;;;;;;;32.00;18.75;;;;;;;;;;5074215;28;20041;-67
2022/09/11 01:54:30;;;;;;;24.90;15.00;;;;;;;;;;5066796;28;20045;-68
2022/09/11 01:56:59;;;;;;;33.85;18.35;;;;;;;;;;5067369;28;20040;-68
2022/09/11 01:59:36;;;;;;;25.33;12.75;;;;;;;;;;5073129;28;20140;-68
2022/09/11 02:02:08;;;;;;;16.83;10.23;;;;;;;;;;5058425;28;20684;-68
2022/09/11 02:04:40;;;;;;;14.98;9.32;;;;;;;;;;5053717;28;20047;-68
2022/09/11 02:07:15;;;;;;;30.83;17.35;;;;;;;;;;5053055;28;20041;-68
2022/09/11 02:09:46;;;;;;;20.90;13.00;;;;;;;;;;5052505;28;20045;-68
2022/09/11 02:12:13;;;;;;;33.50;18.15;;;;;;;;;;5052880;28;20386;-68
2022/09/11 02:14:45;;;;;;;22.20;12.98;;;;;;;;;;5072013;28;20036;-68
2022/09/11 02:17:14;;;;;;;22.83;13.27;;;;;;;;;;5073151;28;20497;-68
2022/09/11 02:19:40;;;;;;;21.45;13.75;;;;;;;;;;5072322;28;20048;-67
2022/09/11 02:22:06;;;;;;;23.92;14.63;;;;;;;;;;5072605;28;20045;-68
2022/09/11 02:24:33;;;;;;;27.70;16.42;;;;;;;;;;5073443;28;20064;-68
2022/09/11 02:27:04;;;;;;;26.90;15.52;;;;;;;;;;5073966;28;20036;-68
2022/09/11 02:29:30;;;;;;;27.25;15.93;;;;;;;;;;5070701;28;20505;-68
2022/09/11 02:31:58;;;;;;;34.15;18.13;;;;;;;;;;5089343;28;20045;-68
2022/09/11 02:34:26;;;;;;;69.20;21.92;;;;;;;;;;5072412;28;20028;-68
2022/09/11 02:36:55;;;;;;;95.82;23.67;;;;;;;;;;5073439;28;20089;-68
2022/09/11 02:39:40;;;;;;;35.60;19.60;;;;;;;;;;5072165;28;20048;-68
2022/09/11 02:42:12;;;;;;;35.60;19.70;;;;;;;;;;5048949;28;20040;-68
2022/09/11 02:44:47;;;;;;;33.47;18.38;;;;;;;;;;5071690;28;20163;-68
2022/09/11 02:47:13;;;;;;;46.25;16.83;;;;;;;;;;5046785;28;20036;-68
2022/09/11 02:49:43;;;;;;;281.08;20.65;;;;;;;;;;5072847;28;20059;-68
2022/09/11 02:52:18;;;;;;;39.28;17.60;;;;;;;;;;5071966;28;20036;-68
2022/09/11 02:54:44;;;;;;;24.98;13.52;;;;;;;;;;5073012;28;20047;-68
2022/09/11 02:57:18;;;;;;;31.98;17.90;;;;;;;;;;5073357;28;20044;-68
2022/09/11 02:59:52;;;;;;;30.83;17.45;;;;;;;;;;5072678;28;20059;-68
2022/09/11 03:02:19;;;;;;;29.75;15.75;;;;;;;;;;5071767;28;20117;-68
2022/09/11 03:04:45;;;;;;;31.42;16.35;;;;;;;;;;5071717;28;20463;-68
2022/09/11 03:07:11;;;;;;;26.45;14.85;;;;;;;;;;5072392;28;20036;-69
2022/09/11 03:09:37;;;;;;;22.92;15.07;;;;;;;;;;5073065;28;20123;-69
2022/09/11 03:12:04;;;;;;;50.00;11.05;;;;;;;;;;5071462;28;20110;-69
2022/09/11 03:14:30;;;;;;;358.15;23.25;;;;;;;;;;5071782;28;20102;-68
2022/09/11 03:16:57;;;;;;;26.23;16.13;;;;;;;;;;5072578;28;20037;-68
2022/09/11 03:19:23;;;;;;;34.92;16.95;;;;;;;;;;5038334;28;20048;-68
2022/09/11 03:21:50;;;;;;;33.22;17.58;;;;;;;;;;5071203;28;20044;-68
2022/09/11 03:24:16;;;;;;;29.88;16.83;;;;;;;;;;5072347;28;20048;-68
2022/09/11 03:26:42;;;;;;;34.10;17.15;;;;;;;;;;5072529;28;20040;-68
2022/09/11 03:29:08;;;;;;;25.55;14.75;;;;;;;;;;5072571;28;20131;-69
2022/09/11 03:31:34;;;;;;;29.10;15.95;;;;;;;;;;5054733;28;20043;-68
2022/09/11 03:34:00;;;;;;;25.67;16.20;;;;;;;;;;5072015;28;20040;-68
2022/09/11 03:36:26;;;;;;;29.85;16.27;;;;;;;;;;5072447;28;20044;-68
2022/09/11 03:38:54;;;;;;;25.60;15.80;;;;;;;;;;5071891;28;20040;-68
2022/09/11 03:41:20;;;;;;;24.38;14.90;;;;;;;;;;5054407;28;20044;-68
2022/09/11 03:43:46;;;;;;;26.77;15.27;;;;;;;;;;5070683;28;20072;-67
2022/09/11 03:46:12;;;;;;;27.88;16.30;;;;;;;;;;5059739;28;20040;-67
2022/09/11 03:48:38;;;;;;;24.23;15.15;;;;;;;;;;5070746;28;20553;-68
2022/09/11 03:51:04;;;;;;;29.27;14.10;;;;;;;;;;5071962;28;20416;-68
2022/09/11 03:53:31;;;;;;;24.35;13.73;;;;;;;;;;5070587;28;20071;-68
2022/09/11 03:55:59;;;;;;;57.75;17.27;;;;;;;;;;5070782;28;20489;-68
2022/09/11 03:58:25;;;;;;;25.63;16.33;;;;;;;;;;5054345;28;20037;-68
2022/09/11 04:00:51;;;;;;;44.17;16.75;;;;;;;;;;5068792;28;20115;-68
2022/09/11 04:03:18;;;;;;;47.90;16.20;;;;;;;;;;5046116;28;20041;-68
2022/09/11 04:05:54;;;;;;;252.93;19.20;;;;;;;;;;5049615;28;20120;-68
2022/09/11 04:08:20;;;;;;;35.38;12.85;;;;;;;;;;5051451;28;20090;-68
2022/09/11 04:10:47;;;;;;;35.75;15.40;;;;;;;;;;5051681;28;20477;-68
2022/09/11 04:13:13;;;;;;;21.50;14.45;;;;;;;;;;5051438;28;20397;-68
2022/09/11 04:15:39;;;;;;;20.98;14.23;;;;;;;;;;5051894;28;20036;-68
2022/09/11 04:18:06;;;;;;;18.60;12.80;;;;;;;;;;5050064;28;20116;-68
2022/09/11 04:20:32;;;;;;;15.20;11.65;;;;;;;;;;5049783;28;20052;-68
2022/09/11 04:22:58;;;;;;;14.57;10.82;;;;;;;;;;5050202;28;20041;-68
2022/09/11 04:25:24;;;;;;;15.10;11.25;;;;;;;;;;5051430;28;20052;-68
2022/09/11 04:27:50;;;;;;;40.60;12.90;;;;;;;;;;5050402;28;20045;-68
2022/09/11 04:30:17;;;;;;;14.48;10.75;;;;;;;;;;5033657;28;20041;-68
2022/09/11 04:32:45;;;;;;;19.15;13.18;;;;;;;;;;5034037;28;20508;-69
2022/09/11 04:35:11;;;;;;;331.05;22.50;;;;;;;;;;5050237;28;20033;-68
2022/09/11 04:37:37;;;;;;;239.90;19.77;;;;;;;;;;5050379;28;20037;-68
2022/09/11 04:40:03;;;;;;;69.93;13.98;;;;;;;;;;5066524;28;20122;-68
2022/09/11 04:42:29;;;;;;;37.10;10.95;;;;;;;;;;5051555;28;20509;-68
2022/09/11 04:44:55;;;;;;;19.77;12.75;;;;;;;;;;5050258;28;20075;-68
2022/09/11 04:47:21;;;;;;;18.70;12.93;;;;;;;;;;5059450;28;20519;-68
2022/09/11 04:49:48;;;;;;;28.58;13.38;;;;;;;;;;5070562;28;20512;-68
2022/09/11 04:52:14;;;;;;;25.27;12.48;;;;;;;;;;5069927;28;20044;-68
2022/09/11 04:54:40;;;;;;;19.38;11.85;;;;;;;;;;5071581;28;20040;-69
2022/09/11 04:57:07;;;;;;;25.90;13.38;;;;;;;;;;5069765;28;20504;-68
2022/09/11 04:59:34;;;;;;;84.97;16.45;;;;;;;;;;5070289;28;20071;-68
2022/09/11 05:02:01;;;;;;;42.03;14.25;;;;;;;;;;5071108;28;20063;-68
2022/09/11 05:04:27;;;;;;;74.88;14.68;;;;;;;;;;5053825;28;20489;-68
2022/09/11 05:06:54;;;;;;;77.97;16.38;;;;;;;;;;5070123;28;20048;-68
2022/09/11 05:09:20;;;;;;;95.20;16.58;;;;;;;;;;5069708;28;20106;-68
2022/09/11 05:11:46;;;;;;;28.45;12.18;;;;;;;;;;5071248;28;20051;-68
2022/09/11 05:14:12;;;;;;;33.67;14.57;;;;;;;;;;5071176;28;20121;-68
2022/09/11 05:16:38;;;;;;;22.73;13.85;;;;;;;;;;5053710;28;20048;-68
2022/09/11 05:19:04;;;;;;;21.58;15.23;;;;;;;;;;5070876;28;20059;-68
2022/09/11 05:21:30;;;;;;;30.83;14.73;;;;;;;;;;5069985;28;20141;-68
2022/09/11 05:23:57;;;;;;;21.70;13.65;;;;;;;;;;5070323;28;20051;-68
2022/09/11 05:26:27;;;;;;;40.58;14.70;;;;;;;;;;5052778;28;20040;-68
2022/09/11 05:29:13;;;;;;;55.25;15.15;;;;;;;;;;5069843;28;20067;-68
2022/09/11 05:31:40;;;;;;;16.38;12.07;;;;;;;;;;5072529;28;20044;-68
2022/09/11 05:34:07;;;;;;;14.95;11.40;;;;;;;;;;5073446;28;20044;-68
2022/09/11 05:36:34;;;;;;;14.82;11.07;;;;;;;;;;5073272;28;20071;-68
2022/09/11 05:39:00;;;;;;;14.90;12.00;;;;;;;;;;5075057;28;20102;-68
2022/09/11 05:41:26;;;;;;;17.52;11.60;;;;;;;;;;5074215;28;20040;-68
2022/09/11 05:43:53;;;;;;;14.50;10.88;;;;;;;;;;5073810;28;20052;-69
2022/09/11 05:46:20;;;;;;;15.63;11.60;;;;;;;;;;5060701;28;20052;-68
2022/09/11 05:48:46;;;;;;;14.32;9.90;;;;;;;;;;5050719;28;20049;-68
2022/09/11 05:51:18;;;;;;;41.90;10.45;;;;;;;;;;5064651;28;20046;-68
2022/09/11 05:53:45;;;;;;;25.02;9.55;;;;;;;;;;5073338;28;20040;-69
2022/09/11 05:56:14;;;;;;;34.53;9.75;;;;;;;;;;5072833;28;20049;-69
2022/09/11 05:58:40;;;;;;;19.88;8.85;;;;;;;;;;5074243;28;20048;-69
2022/09/11 06:01:08;;;;;;;27.42;8.25;;;;;;;;;;5074027;28;20515;-69
2022/09/11 06:03:35;;;;;;;29.65;8.27;;;;;;;;;;5056709;28;20040;-69
2022/09/11 06:06:02;;;;;;;19.77;7.60;;;;;;;;;;5074372;28;20050;-69
2022/09/11 06:08:28;;;;;;;11.23;6.88;;;;;;;;;;5072546;28;20036;-69
2022/09/11 06:10:54;;;;;;;6.43;5.82;;;;;;;;;;5072817;28;20094;-69
2022/09/11 06:13:21;;;;;;;6.30;5.70;;;;;;;;;;5072779;28;20055;-69
2022/09/11 06:15:48;;;;;;;6.45;5.85;;;;;;;;;;5073339;28;20042;-69
2022/09/11 06:18:14;;;;;;;6.00;5.40;;;;;;;;;;5056257;28;20131;-69
2022/09/11 06:20:41;;;;;;;5.20;4.70;;;;;;;;;;5072574;28;20090;-69
2022/09/11 06:23:10;;;;;;;5.38;4.40;;;;;;;;;;5074158;28;20111;-70
2022/09/11 06:25:37;;;;;;;4.50;3.97;;;;;;;;;;5072630;28;20049;-70
2022/09/11 06:28:03;;;;;;;5.68;4.05;;;;;;;;;;5055885;28;20032;-69
2022/09/11 06:30:29;;;;;;;5.30;4.25;;;;;;;;;;5072127;28;20118;-70
2022/09/11 06:32:56;;;;;;;4.70;4.20;;;;;;;;;;5073583;28;20051;-70
2022/09/11 06:35:22;;;;;;;5.97;4.18;;;;;;;;;;5072467;28;20393;-70
2022/09/11 06:37:49;;;;;;;4.97;4.03;;;;;;;;;;5073700;28;20041;-70
2022/09/11 06:40:17;;;;;;;4.85;4.35;;;;;;;;;;5064113;28;20037;-74
2022/09/11 06:42:43;;;;;;;7.60;3.90;;;;;;;;;;5052296;28;20055;-74
2022/09/11 06:45:09;;;;;;;4.80;4.20;;;;;;;;;;5053678;28;20398;-74
2022/09/11 06:47:35;;;;;;;5.88;4.63;;;;;;;;;;5053318;28;20401;-74
2022/09/11 06:50:01;;;;;;;4.95;4.45;;;;;;;;;;5053095;28;20497;-74
2022/09/11 06:52:27;;;;;;;6.13;4.78;;;;;;;;;;5053340;28;20494;-74
2022/09/11 06:54:53;;;;;;;6.93;4.75;;;;;;;;;;5054480;28;20509;-74
2022/09/11 06:57:19;;;;;;;5.47;4.38;;;;;;;;;;5053001;28;20116;-74
2022/09/11 06:59:46;;;;;;;7.75;4.72;;;;;;;;;;5052925;28;20052;-74
2022/09/11 07:02:12;;;;;;;5.97;4.53;;;;;;;;;;5052914;28;20091;-74
2022/09/11 07:04:38;;;;;;;7.65;4.90;;;;;;;;;;5069478;28;20052;-74
2022/09/11 07:07:04;;;;;;;5.97;4.43;;;;;;;;;;5052754;28;20063;-74
2022/09/11 07:09:30;;;;;;;7.32;5.00;;;;;;;;;;5052915;28;20437;-74
2022/09/11 07:11:56;;;;;;;7.15;4.70;;;;;;;;;;5053028;28;20505;-75
2022/09/11 07:14:22;;;;;;;8.05;4.93;;;;;;;;;;5052788;28;20478;-75
2022/09/11 07:16:49;;;;;;;4.95;4.45;;;;;;;;;;5052691;28;20094;-75
2022/09/11 07:19:17;;;;;;;5.88;4.70;;;;;;;;;;5036264;28;20119;-75
2022/09/11 07:21:43;;;;;;;6.60;4.05;;;;;;;;;;5053768;28;20048;-75
2022/09/11 07:24:09;;;;;;;5.18;4.03;;;;;;;;;;5052671;28;20394;-75
2022/09/11 07:26:35;;;;;;;5.20;4.13;;;;;;;;;;5052458;28;20136;-75
2022/09/11 07:29:02;;;;;;;7.35;4.30;;;;;;;;;;5053690;28;20128;-71
2022/09/11 07:31:29;;;;;;;6.20;4.03;;;;;;;;;;5054510;28;20485;-71
2022/09/11 07:33:55;;;;;;;5.47;4.60;;;;;;;;;;5071740;28;20043;-71
2022/09/11 07:36:23;;;;;;;4.68;3.90;;;;;;;;;;5070645;28;20102;-71
2022/09/11 07:38:50;;;;;;;5.95;4.53;;;;;;;;;;5071299;28;20087;-70
2022/09/11 07:41:17;;;;;;;6.55;4.32;;;;;;;;;;5071283;28;20098;-71
2022/09/11 07:43:49;;;;;;;6.63;4.28;;;;;;;;;;5071027;28;20052;-71
2022/09/11 07:46:16;;;;;;;5.18;4.10;;;;;;;;;;5042636;28;20045;-70
2022/09/11 07:48:42;;;;;;;7.25;5.25;;;;;;;;;;5069411;28;20047;-70
2022/09/11 07:51:10;;;;;;;7.70;5.03;;;;;;;;;;5071156;28;20072;-70
2022/09/11 07:53:43;;;;;;;6.70;5.20;;;;;;;;;;5070267;28;20040;-71
2022/09/11 07:56:10;;;;;;;6.85;5.13;;;;;;;;;;5071010;28;20036;-71
2022/09/11 07:58:38;;;;;;;7.20;5.40;;;;;;;;;;5086828;28;20103;-70
2022/09/11 08:01:10;;;;;;;6.85;5.70;;;;;;;;;;5072169;28;20048;-70
2022/09/11 08:03:36;;;;;;;7.80;6.07;;;;;;;;;;5070689;28;20197;-70
2022/09/11 08:06:04;;;;;;;6.63;5.85;;;;;;;;;;5070872;28;20129;-70
2022/09/11 08:08:30;;;;;;;9.35;6.18;;;;;;;;;;5070270;28;20044;-70
2022/09/11 08:11:01;;;;;;;7.60;5.70;;;;;;;;;;5072075;28;20449;-69
2022/09/11 08:13:27;;;;;;;7.95;6.03;;;;;;;;;;5071907;28;20045;-70
2022/09/11 08:15:53;;;;;;;7.68;6.03;;;;;;;;;;5070817;28;20074;-70
2022/09/11 08:18:19;;;;;;;8.52;4.80;;;;;;;;;;5054459;28;20485;-70
2022/09/11 08:20:45;;;;;;;6.95;5.10;;;;;;;;;;5070548;28;20477;-70
2022/09/11 08:23:11;;;;;;;8.07;5.32;;;;;;;;;;5070610;28;20044;-70
2022/09/11 08:25:38;;;;;;;7.45;4.93;;;;;;;;;;5070467;28;20071;-70
2022/09/11 08:28:04;;;;;;;5.60;4.13;;;;;;;;;;5065562;28;20041;-75
2022/09/11 08:30:31;;;;;;;5.93;3.38;;;;;;;;;;5052568;28;20053;-76
2022/09/11 08:32:58;;;;;;;5.28;3.17;;;;;;;;;;5051987;28;20531;-76
2022/09/11 08:35:24;;;;;;;6.78;3.67;;;;;;;;;;5051980;28;20129;-76
2022/09/11 08:37:51;;;;;;;4.15;3.03;;;;;;;;;;5051609;28;20045;-76
2022/09/11 08:40:17;;;;;;;4.15;3.08;;;;;;;;;;5051579;28;20509;-76
2022/09/11 08:42:44;;;;;;;5.97;2.70;;;;;;;;;;5051349;28;20052;-76
2022/09/11 08:45:15;;;;;;;4.70;2.50;;;;;;;;;;5051345;28;20067;-76
2022/09/11 08:47:44;;;;;;;5.03;2.22;;;;;;;;;;5051446;28;20045;-76
2022/09/11 08:50:13;;;;;;;4.78;2.20;;;;;;;;;;5051454;28;20120;-77
2022/09/11 08:52:41;;;;;;;4.82;2.38;;;;;;;;;;5051272;28;20048;-74
2022/09/11 08:55:14;;;;;;;3.85;2.10;;;;;;;;;;5051558;28;20490;-74
2022/09/11 08:57:53;;;;;;;3.20;1.63;;;;;;;;;;5051597;28;20486;-75
2022/09/11 09:00:24;;;;;;;3.40;1.75;;;;;;;;;;5051208;28;20111;-75
2022/09/11 09:03:01;;;;;;;4.15;1.80;;;;;;;;;;5034767;28;20053;-75
2022/09/11 09:05:46;;;;;;;3.53;1.90;;;;;;;;;;5053975;28;20037;-75
2022/09/11 09:08:12;;;;;;;;;;;;;;;;;;5056191;28;20508;-75
2022/09/11 09:11:00;;;;;;;4.25;1.83;;;;;;;;;;5041356;28;20011;-75
2022/09/11 09:13:35;;;;;;;4.70;1.90;;;;;;;;;;5056882;28;20062;-75
2022/09/11 09:16:24;;;;;;;3.38;1.80;;;;;;;;;;5055116;28;20041;-75
2022/09/11 09:18:55;;;;;;;4.50;1.80;;;;;;;;;;5056691;28;20071;-74
2022/09/11 09:21:48;;;;;;;3.95;1.60;;;;;;;;;;5056804;28;20037;-74
2022/09/11 09:24:18;;;;;;;4.35;1.90;;;;;;;;;;5052735;28;20060;-75
2022/09/11 09:26:47;;;;;;;3.50;1.75;;;;;;;;;;5055067;28;20049;-75
2022/09/11 09:29:17;;;;;;;3.80;1.60;;;;;;;;;;5054537;28;20041;-75
2022/09/11 09:31:44;;;;;;;4.93;2.10;;;;;;;;;;5038018;28;20047;-76
2022/09/11 09:34:15;;;;;;;4.00;2.08;;;;;;;;;;5054899;28;20045;-76
2022/09/11 09:37:00;;;;;;;4.07;1.90;;;;;;;;;;5054633;28;20126;-76
2022/09/11 09:39:26;;;;;;;4.40;1.77;;;;;;;;;;5054693;28;20049;-76
2022/09/11 09:41:58;;;;;;;5.32;2.30;;;;;;;;;;5054433;28;20041;-76
2022/09/11 09:44:36;;;;;;;4.10;2.05;;;;;;;;;;5054561;28;20045;-77
2022/09/11 09:47:02;;;;;;;4.00;1.80;;;;;;;;;;5054418;28;20040;-77
2022/09/11 09:49:33;;;;;;;3.50;1.80;;;;;;;;;;5054395;28;20044;-76
2022/09/11 09:52:04;;;;;;;3.95;1.60;;;;;;;;;;5054681;28;20052;-76
2022/09/11 09:54:30;;;;;;;4.63;1.92;;;;;;;;;;5054781;28;20516;-76
2022/09/11 09:57:01;;;;;;;3.72;1.67;;;;;;;;;;5054716;28;20044;-77
2022/09/11 09:59:41;;;;;;;3.88;2.35;;;;;;;;;;5054488;28;20049;-76
2022/09/11 10:02:07;;;;;;;4.30;1.92;;;;;;;;;;5054328;28;20056;-76
2022/09/11 10:04:34;;;;;;;4.22;2.08;;;;;;;;;;5054507;28;20052;-75
2022/09/11 10:07:09;;;;;;;3.38;1.80;;;;;;;;;;5054183;28;20445;-76
2022/09/11 10:09:35;;;;;;;3.38;1.85;;;;;;;;;;5053884;28;20056;-75
2022/09/11 10:12:05;;;;;;;3.40;1.60;;;;;;;;;;5053890;28;20041;-76
2022/09/11 10:14:44;;;;;;;4.55;1.77;;;;;;;;;;5037251;28;20040;-76
2022/09/11 10:17:20;;;;;;;4.40;1.90;;;;;;;;;;5054586;28;20087;-75
2022/09/11 10:19:46;;;;;;;4.65;2.05;;;;;;;;;;5053930;28;20041;-76
2022/09/11 10:22:25;;;;;;;6.13;2.08;;;;;;;;;;5055488;28;20036;-76
2022/09/11 10:25:00;;;;;;;6.30;2.10;;;;;;;;;;5053837;28;20033;-76
2022/09/11 10:27:28;;;;;;;3.88;2.10;;;;;;;;;;5053666;28;20045;-76
2022/09/11 10:29:54;;;;;;;7.07;2.15;;;;;;;;;;5055267;28;20099;-76
2022/09/11 10:32:23;;;;;;;3.83;2.00;;;;;;;;;;5054051;28;20084;-76
2022/09/11 10:34:50;;;;;;;5.05;2.30;;;;;;;;;;5023967;28;20036;-76
2022/09/11 10:37:29;;;;;;;4.10;2.00;;;;;;;;;;5054159;28;20037;-76
2022/09/11 10:40:07;;;;;;;4.82;1.90;;;;;;;;;;5057562;28;20041;-76
2022/09/11 10:42:34;;;;;;;5.88;1.98;;;;;;;;;;5053833;28;20123;-76
2022/09/11 10:45:11;;;;;;;4.90;2.03;;;;;;;;;;5053395;28;20045;-75
2022/09/11 10:47:37;;;;;;;2.33;1.50;;;;;;;;;;5053587;28;20052;-76
2022/09/11 10:50:12;;;;;;;2.45;1.20;;;;;;;;;;5053210;28;20040;-76
2022/09/11 10:53:02;;;;;;;3.40;1.35;;;;;;;;;;5053676;28;20048;-77
2022/09/11 10:55:37;;;;;;;3.85;1.40;;;;;;;;;;5045141;28;20045;-77
2022/09/11 10:58:23;;;;;;;2.63;1.25;;;;;;;;;;5061808;28;20044;-76
2022/09/11 11:00:52;;;;;;;3.13;1.20;;;;;;;;;;5040286;28;20456;-77
2022/09/11 11:03:23;;;;;;;2.95;1.55;;;;;;;;;;5053419;28;20056;-77
2022/09/11 11:06:18;;;;;;;4.40;1.65;;;;;;;;;;5053312;28;20060;-77
2022/09/11 11:08:54;;;;;;;5.53;1.70;;;;;;;;;;5053484;28;20048;-77
2022/09/11 11:11:39;;;;;;;3.90;1.67;;;;;;;;;;5052661;28;20118;-77
2022/09/11 11:14:05;;;;;;;;;;;;;;;;;;5054958;28;20059;-77
2022/09/11 11:16:44;;;;;;;3.72;1.63;;;;;;;;;;5061740;28;19991;-71
2022/09/11 11:19:16;;;;;;;4.13;1.70;;;;;;;;;;5071639;28;20468;-72
2022/09/11 11:21:59;;;;;;;3.05;1.60;;;;;;;;;;5072881;28;20088;-71
2022/09/11 11:24:32;;;;;;;3.40;1.40;;;;;;;;;;5071457;28;20043;-71
2022/09/11 11:27:18;;;;;;;3.70;1.70;;;;;;;;;;5071249;28;20047;-71
2022/09/11 11:29:59;;;;;;;3.97;1.40;;;;;;;;;;5069811;28;20040;-71
2022/09/11 11:32:26;;;;;;;3.50;1.63;;;;;;;;;;5072631;28;20131;-71
2022/09/11 11:35:00;;;;;;;4.07;2.15;;;;;;;;;;5054758;28;20036;-71
2022/09/11 11:37:29;;;;;;;4.50;1.52;;;;;;;;;;5071655;28;20481;-71
2022/09/11 11:39:58;;;;;;;3.78;1.80;;;;;;;;;;5054798;28;20126;-71
2022/09/11 11:42:27;;;;;;;2.67;1.40;;;;;;;;;;5071308;28;20131;-75
2022/09/11 11:44:59;;;;;;;2.85;1.20;;;;;;;;;;5036040;28;20049;-77
2022/09/11 11:47:29;;;;;;;4.18;1.38;;;;;;;;;;5052296;28;20413;-76
2022/09/11 11:50:06;;;;;;;3.17;1.10;;;;;;;;;;5053708;28;20037;-76
2022/09/11 11:52:37;;;;;;;3.55;1.30;;;;;;;;;;5053653;28;20040;-77
2022/09/11 11:55:03;;;;;;;3.00;1.13;;;;;;;;;;5065946;28;20037;-76
2022/09/11 11:57:36;;;;;;;4.57;1.50;;;;;;;;;;5052001;28;20045;-77
2022/09/11 12:00:09;;;;;;;3.08;1.27;;;;;;;;;;5065676;28;20446;-76
2022/09/11 12:02:42;;;;;;;2.90;1.10;;;;;;;;;;5035100;28;20049;-76
2022/09/11 12:05:11;;;;;;;4.20;1.10;;;;;;;;;;5065596;28;20044;-76
2022/09/11 12:07:38;;;;;;;4.10;1.10;;;;;;;;;;5058759;28;20036;-77
2022/09/11 12:10:05;;;;;;;3.42;1.20;;;;;;;;;;5071746;28;20056;-75
2022/09/11 12:12:33;;;;;;;2.85;1.10;;;;;;;;;;5070714;28;20068;-71
2022/09/11 12:15:04;;;;;;;2.70;1.00;;;;;;;;;;5072497;28;20047;-70
2022/09/11 12:17:32;;;;;;;3.30;1.15;;;;;;;;;;5070792;28;20090;-70
2022/09/11 12:20:10;;;;;;;3.70;1.10;;;;;;;;;;5072157;28;20086;-70
2022/09/11 12:22:44;;;;;;;2.33;1.10;;;;;;;;;;5070550;28;20079;-70
2022/09/11 12:25:22;;;;;;;3.85;1.30;;;;;;;;;;5070552;28;20525;-70
2022/09/11 12:27:48;;;;;;;3.42;1.10;;;;;;;;;;5071614;28;20107;-70
2022/09/11 12:30:17;;;;;;;2.55;1.10;;;;;;;;;;5070425;28;20040;-70
2022/09/11 12:32:46;;;;;;;2.75;1.08;;;;;;;;;;5070542;28;20041;-70
2022/09/11 12:35:18;;;;;;;3.30;1.17;;;;;;;;;;5070569;28;20119;-70
2022/09/11 12:37:45;;;;;;;3.17;1.00;;;;;;;;;;5070634;28;20041;-76
2022/09/11 12:40:32;;;;;;;5.90;1.30;;;;;;;;;;5063531;28;20040;-75
2022/09/11 12:43:19;;;;;;;4.32;1.20;;;;;;;;;;5056874;28;20045;-75
2022/09/11 12:45:48;;;;;;;2.30;1.10;;;;;;;;;;5035502;28;20529;-75
2022/09/11 12:48:16;;;;;;;2.63;1.10;;;;;;;;;;5070244;28;20446;-77
2022/09/11 12:50:49;;;;;;;2.85;1.02;;;;;;;;;;5074477;28;20516;-77
2022/09/11 12:53:17;;;;;;;2.83;1.20;;;;;;;;;;5074769;28;20436;-77
2022/09/11 12:55:55;;;;;;;5.72;1.75;;;;;;;;;;5055535;28;20037;-77
2022/09/11 12:58:24;;;;;;;33.55;9.82;;;;;;;;;;5055076;28;20043;-77
2022/09/11 13:01:00;;;;;;;5.28;1.73;;;;;;;;;;5055077;28;20072;-76
2022/09/11 13:03:29;;;;;;;4.80;1.40;;;;;;;;;;5068871;28;20123;-76
2022/09/11 13:06:01;;;;;;;4.05;1.63;;;;;;;;;;5074405;28;20041;-76
2022/09/11 13:08:29;;;;;;;4.25;1.70;;;;;;;;;;5061260;28;20492;-76
2022/09/11 13:11:18;;;;;;;3.55;1.77;;;;;;;;;;5068946;28;20128;-75
2022/09/11 13:13:45;;;;;;;2.90;1.30;;;;;;;;;;5032518;28;20060;-75
2022/09/11 13:16:25;;;;;;;4.03;1.60;;;;;;;;;;5061284;28;20044;-77
2022/09/11 13:18:56;;;;;;;3.72;1.80;;;;;;;;;;5059815;28;20041;-76
2022/09/11 13:21:22;;;;;;;4.85;1.70;;;;;;;;;;5055266;28;20154;-76
2022/09/11 13:23:48;;;;;;;4.18;1.58;;;;;;;;;;5068104;28;20044;-77
2022/09/11 13:26:23;;;;;;;4.70;1.70;;;;;;;;;;5068536;28;20393;-76
2022/09/11 13:28:51;;;;;;;3.30;1.48;;;;;;;;;;5068153;28;20048;-77
2022/09/11 13:31:18;;;;;;;2.88;1.42;;;;;;;;;;5069358;28;20401;-76
2022/09/11 13:33:51;;;;;;;4.68;1.67;;;;;;;;;;5054437;28;20037;-76
2022/09/11 13:36:23;;;;;;;3.70;1.63;;;;;;;;;;5054452;28;20037;-78
2022/09/11 13:39:09;;;;;;;3.75;1.70;;;;;;;;;;5065661;28;20281;-76
2022/09/11 13:41:42;;;;;;;3.42;1.48;;;;;;;;;;5046899;28;20032;-76
2022/09/11 13:44:23;;;;;;;19.80;16.60;;;;;;;;;;5074028;28;20101;-76
2022/09/11 13:46:51;;;;;;;4.53;2.22;;;;;;;;;;5060967;28;20032;-77
2022/09/11 13:49:17;;;;;;;3.08;1.85;;;;;;;;;;5072934;28;20044;-76
2022/09/11 13:51:47;;;;;;;3.70;1.83;;;;;;;;;;5072833;28;20052;-76
2022/09/11 13:54:20;;;;;;;3.35;1.52;;;;;;;;;;5048953;28;20124;-76
2022/09/11 13:57:06;;;;;;;2.88;1.42;;;;;;;;;;5068772;28;20120;-76
2022/09/11 13:59:32;;;;;;;3.83;1.80;;;;;;;;;;5065886;28;20047;-76
2022/09/11 14:02:02;;;;;;;4.70;1.63;;;;;;;;;;5043043;28;20413;-76
2022/09/11 14:04:28;;;;;;;5.35;1.88;;;;;;;;;;5073035;28;20051;-76
2022/09/11 14:06:55;;;;;;;3.67;1.90;;;;;;;;;;5073474;28;20037;-76
2022/09/11 14:09:21;;;;;;;2.78;1.90;;;;;;;;;;5072946;28;20509;-76
2022/09/11 14:11:48;;;;;;;3.95;1.92;;;;;;;;;;5056417;28;20048;-76
2022/09/11 14:14:35;;;;;;;4.65;2.13;;;;;;;;;;5072968;28;20044;-76
2022/09/11 14:17:01;;;;;;;2.90;1.92;;;;;;;;;;5059448;28;20067;-76
2022/09/11 14:19:29;;;;;;;4.30;1.95;;;;;;;;;;5044680;28;20036;-76
2022/09/11 14:21:55;;;;;;;5.63;2.30;;;;;;;;;;5072684;28;20050;-76
2022/09/11 14:24:33;;;;;;;3.15;1.80;;;;;;;;;;5073359;28;20105;-76
2022/09/11 14:27:00;;;;;;;4.60;2.20;;;;;;;;;;5061149;28;20429;-76
2022/09/11 14:29:36;;;;;;;6.00;2.30;;;;;;;;;;5071995;28;20064;-78
2022/09/11 14:32:22;;;;;;;6.10;3.70;;;;;;;;;;5074457;28;20389;-76
2022/09/11 14:34:48;;;;;;;7.47;3.70;;;;;;;;;;5039415;28;20107;-76
2022/09/11 14:37:15;;;;;;;5.60;3.20;;;;;;;;;;5065096;28;20079;-76
2022/09/11 14:39:43;;;;;;;2.80;1.90;;;;;;;;;;5072521;28;20044;-77
2022/09/11 14:42:12;;;;;;;5.18;2.00;;;;;;;;;;5074244;28;20044;-76
2022/09/11 14:44:40;;;;;;;6.20;2.00;;;;;;;;;;5073549;28;20512;-75
2022/09/11 14:47:06;;;;;;;3.67;1.70;;;;;;;;;;5058581;28;20040;-76
2022/09/11 14:49:32;;;;;;;4.43;1.70;;;;;;;;;;5071877;28;20044;-76